sensor_id;sensor_type;location;lat;lon;timestamp;pressure;altitude;pressure_sealevel;temperature;humidity
50242;BME280;36126;43.222;27.874;2022-11-14T00:01:19;102548.63;;;7.09;100.00
50242;BME280;36126;43.222;27.874;2022-11-14T00:03:47;102539.44;;;7.01;100.00
50242;BME280;36126;43.222;27.874;2022-11-14T00:06:13;102548.94;;;6.98;100.00
50242;BME280;36126;43.222;27.874;2022-11-14T00:08:38;102545.31;;;6.97;100.00
50242;BME280;36126;43.222;27.874;2022-11-14T00:11:04;102538.91;;;6.97;100.00
50242;BME280;36126;43.222;27.874;2022-11-14T00:13:29;102544.88;;;6.76;100.00
50242;BME280;36126;43.222;27.874;2022-11-14T00:15:54;102546.97;;;6.82;100.00
50242;BME280;36126;43.222;27.874;2022-11-14T00:18:20;102547.34;;;6.87;100.00
50242;BME280;36126;43.222;27.874;2022-11-14T00:20:49;102545.72;;;6.76;100.00
50242;BME280;36126;43.222;27.874;2022-11-14T00:23:15;102538.84;;;6.80;100.00
50242;BME280;36126;43.222;27.874;2022-11-14T00:25:40;102541.09;;;6.77;100.00
50242;BME280;36126;43.222;27.874;2022-11-14T00:28:05;102537.00;;;6.89;100.00
50242;BME280;36126;43.222;27.874;2022-11-14T00:30:31;102535.41;;;6.78;100.00
50242;BME280;36126;43.222;27.874;2022-11-14T00:32:56;102538.28;;;6.69;100.00
50242;BME280;36126;43.222;27.874;2022-11-14T00:35:21;102535.53;;;6.69;100.00
50242;BME280;36126;43.222;27.874;2022-11-14T00:37:47;102535.53;;;6.69;100.00
50242;BME280;36126;43.222;27.874;2022-11-14T00:40:12;102532.25;;;6.39;100.00
50242;BME280;36126;43.222;27.874;2022-11-14T00:42:38;102529.50;;;6.39;100.00
50242;BME280;36126;43.222;27.874;2022-11-14T00:45:04;102532.81;;;6.42;100.00
50242;BME280;36126;43.222;27.874;2022-11-14T00:47:29;102525.88;;;6.38;100.00
50242;BME280;36126;43.222;27.874;2022-11-14T00:49:55;102521.63;;;6.52;100.00
50242;BME280;36126;43.222;27.874;2022-11-14T00:52:20;102522.66;;;6.51;100.00
50242;BME280;36126;43.222;27.874;2022-11-14T00:54:45;102519.13;;;6.33;100.00
50242;BME280;36126;43.222;27.874;2022-11-14T00:57:11;102518.94;;;6.34;100.00
50242;BME280;36126;43.222;27.874;2022-11-14T00:59:36;102521.31;;;6.55;100.00
50242;BME280;36126;43.222;27.874;2022-11-14T01:02:01;102513.06;;;6.63;100.00
50242;BME280;36126;43.222;27.874;2022-11-14T01:04:27;102514.31;;;6.43;100.00
50242;BME280;36126;43.222;27.874;2022-11-14T01:06:52;102519.72;;;6.53;100.00
50242;BME280;36126;43.222;27.874;2022-11-14T01:09:17;102511.09;;;6.56;100.00
50242;BME280;36126;43.222;27.874;2022-11-14T01:11:43;102506.03;;;6.43;100.00
50242;BME280;36126;43.222;27.874;2022-11-14T01:14:08;102504.19;;;6.52;100.00
50242;BME280;36126;43.222;27.874;2022-11-14T01:16:33;102497.84;;;6.59;100.00
50242;BME280;36126;43.222;27.874;2022-11-14T01:19:00;102499.22;;;6.63;100.00
50242;BME280;36126;43.222;27.874;2022-11-14T01:21:26;102497.88;;;6.68;100.00
50242;BME280;36126;43.222;27.874;2022-11-14T01:23:51;102498.84;;;6.58;100.00
50242;BME280;36126;43.222;27.874;2022-11-14T01:26:16;102498.81;;;6.50;100.00
50242;BME280;36126;43.222;27.874;2022-11-14T01:28:42;102499.31;;;6.45;100.00
50242;BME280;36126;43.222;27.874;2022-11-14T01:31:12;102496.56;;;6.45;100.00
50242;BME280;36126;43.222;27.874;2022-11-14T01:33:37;102492.88;;;6.28;100.00
50242;BME280;36126;43.222;27.874;2022-11-14T01:36:03;102497.84;;;6.25;100.00
50242;BME280;36126;43.222;27.874;2022-11-14T01:38:29;102487.94;;;6.14;100.00
50242;BME280;36126;43.222;27.874;2022-11-14T01:40:54;102484.03;;;6.25;100.00
50242;BME280;36126;43.222;27.874;2022-11-14T01:43:23;102486.63;;;6.26;100.00
50242;BME280;36126;43.222;27.874;2022-11-14T01:53:40;102481.09;;;6.26;100.00
50242;BME280;36126;43.222;27.874;2022-11-14T01:56:06;102482.25;;;6.16;100.00
50242;BME280;36126;43.222;27.874;2022-11-14T01:58:34;102483.34;;;6.23;100.00
50242;BME280;36126;43.222;27.874;2022-11-14T02:01:01;102487.00;;;6.32;100.00
50242;BME280;36126;43.222;27.874;2022-11-14T02:03:27;102480.16;;;6.44;100.00
50242;BME280;36126;43.222;27.874;2022-11-14T02:05:53;102484.66;;;6.45;100.00
50242;BME280;36126;43.222;27.874;2022-11-14T02:08:18;102490.88;;;6.47;100.00
50242;BME280;36126;43.222;27.874;2022-11-14T02:10:44;102490.31;;;6.43;100.00
50242;BME280;36126;43.222;27.874;2022-11-14T02:13:10;102489.00;;;6.21;100.00
50242;BME280;36126;43.222;27.874;2022-11-14T02:15:35;102482.41;;;6.49;100.00
50242;BME280;36126;43.222;27.874;2022-11-14T02:18:01;102492.09;;;6.53;100.00
50242;BME280;36126;43.222;27.874;2022-11-14T02:20:27;102482.88;;;6.36;100.00
50242;BME280;36126;43.222;27.874;2022-11-14T02:22:53;102486.63;;;6.26;100.00
50242;BME280;36126;43.222;27.874;2022-11-14T02:25:18;102487.53;;;6.35;100.00
50242;BME280;36126;43.222;27.874;2022-11-14T02:27:44;102484.47;;;6.38;100.00
50242;BME280;36126;43.222;27.874;2022-11-14T02:30:13;102482.63;;;6.21;100.00
50242;BME280;36126;43.222;27.874;2022-11-14T02:32:39;102478.69;;;6.23;100.00
50242;BME280;36126;43.222;27.874;2022-11-14T02:35:05;102483.22;;;6.33;100.00
50242;BME280;36126;43.222;27.874;2022-11-14T02:37:30;102475.63;;;6.35;100.00
50242;BME280;36126;43.222;27.874;2022-11-14T02:39:55;102473.19;;;6.32;100.00
50242;BME280;36126;43.222;27.874;2022-11-14T02:42:21;102480.94;;;6.28;100.00
50242;BME280;36126;43.222;27.874;2022-11-14T02:44:46;102478.78;;;6.40;100.00
50242;BME280;36126;43.222;27.874;2022-11-14T02:47:11;102481.94;;;6.53;100.00
50242;BME280;36126;43.222;27.874;2022-11-14T02:49:37;102481.91;;;6.45;100.00
50242;BME280;36126;43.222;27.874;2022-11-14T02:52:02;102473.66;;;6.53;100.00
50242;BME280;36126;43.222;27.874;2022-11-14T02:54:27;102474.53;;;6.62;100.00
50242;BME280;36126;43.222;27.874;2022-11-14T02:56:53;102476.41;;;6.61;100.00
50242;BME280;36126;43.222;27.874;2022-11-14T02:59:18;102480.31;;;6.85;100.00
50242;BME280;36126;43.222;27.874;2022-11-14T03:01:43;102473.88;;;6.68;100.00
50242;BME280;36126;43.222;27.874;2022-11-14T03:04:09;102472.88;;;6.77;100.00
50242;BME280;36126;43.222;27.874;2022-11-14T03:06:34;102473.38;;;6.73;100.00
50242;BME280;36126;43.222;27.874;2022-11-14T03:09:00;102477.09;;;6.55;100.00
50242;BME280;36126;43.222;27.874;2022-11-14T03:11:25;102478.91;;;6.73;100.00
50242;BME280;36126;43.222;27.874;2022-11-14T03:13:50;102482.91;;;6.78;100.00
50242;BME280;36126;43.222;27.874;2022-11-14T03:16:16;102479.09;;;6.79;100.00
50242;BME280;36126;43.222;27.874;2022-11-14T03:18:41;102490.00;;;6.81;100.00
50242;BME280;36126;43.222;27.874;2022-11-14T03:21:08;102485.69;;;6.87;100.00
50242;BME280;36126;43.222;27.874;2022-11-14T03:23:33;102489.97;;;6.73;100.00
50242;BME280;36126;43.222;27.874;2022-11-14T03:25:59;102490.25;;;6.70;100.00
50242;BME280;36126;43.222;27.874;2022-11-14T03:28:25;102494.66;;;6.89;100.00
50242;BME280;36126;43.222;27.874;2022-11-14T03:30:51;102492.75;;;6.81;100.00
50242;BME280;36126;43.222;27.874;2022-11-14T03:33:16;102492.56;;;6.74;100.00
50242;BME280;36126;43.222;27.874;2022-11-14T03:35:42;102491.38;;;6.85;100.00
50242;BME280;36126;43.222;27.874;2022-11-14T03:38:07;102487.19;;;6.73;100.00
50242;BME280;36126;43.222;27.874;2022-11-14T03:40:33;102483.25;;;6.75;100.00
50242;BME280;36126;43.222;27.874;2022-11-14T03:42:58;102487.88;;;6.75;100.00
50242;BME280;36126;43.222;27.874;2022-11-14T03:45:23;102487.66;;;6.68;100.00
50242;BME280;36126;43.222;27.874;2022-11-14T03:47:48;102488.25;;;6.80;100.00
50242;BME280;36126;43.222;27.874;2022-11-14T03:50:14;102488.63;;;6.85;100.00
50242;BME280;36126;43.222;27.874;2022-11-14T03:52:39;102491.75;;;6.98;100.00
50242;BME280;36126;43.222;27.874;2022-11-14T03:55:05;102494.50;;;6.98;100.00
50242;BME280;36126;43.222;27.874;2022-11-14T03:57:30;102485.84;;;6.85;100.00
50242;BME280;36126;43.222;27.874;2022-11-14T03:59:55;102497.56;;;6.79;100.00
50242;BME280;36126;43.222;27.874;2022-11-14T04:02:21;102491.31;;;6.69;100.00
50242;BME280;36126;43.222;27.874;2022-11-14T04:04:46;102491.66;;;6.74;100.00
50242;BME280;36126;43.222;27.874;2022-11-14T04:07:11;102498.19;;;6.56;100.00
50242;BME280;36126;43.222;27.874;2022-11-14T04:09:37;102496.31;;;6.65;100.00
50242;BME280;36126;43.222;27.874;2022-11-14T04:12:02;102489.75;;;6.66;100.00
50242;BME280;36126;43.222;27.874;2022-11-14T04:14:27;102494.69;;;6.54;100.00
50242;BME280;36126;43.222;27.874;2022-11-14T04:16:53;102501.28;;;6.61;100.00
50242;BME280;36126;43.222;27.874;2022-11-14T04:19:18;102493.13;;;6.52;100.00
50242;BME280;36126;43.222;27.874;2022-11-14T04:21:43;102496.66;;;6.27;100.00
50242;BME280;36126;43.222;27.874;2022-11-14T04:24:09;102500.69;;;6.41;100.00
50242;BME280;36126;43.222;27.874;2022-11-14T04:26:34;102496.72;;;6.44;100.00
50242;BME280;36126;43.222;27.874;2022-11-14T04:28:59;102497.16;;;6.57;100.00
50242;BME280;36126;43.222;27.874;2022-11-14T04:31:25;102509.00;;;6.50;100.00
50242;BME280;36126;43.222;27.874;2022-11-14T04:33:50;102506.91;;;6.43;100.00
50242;BME280;36126;43.222;27.874;2022-11-14T04:36:15;102501.09;;;6.20;100.00
50242;BME280;36126;43.222;27.874;2022-11-14T04:38:41;102505.50;;;6.13;100.00
50242;BME280;36126;43.222;27.874;2022-11-14T04:41:06;102501.06;;;6.12;100.00
50242;BME280;36126;43.222;27.874;2022-11-14T04:43:31;102493.44;;;6.14;100.00
50242;BME280;36126;43.222;27.874;2022-11-14T04:45:57;102496.94;;;6.16;100.00
50242;BME280;36126;43.222;27.874;2022-11-14T04:48:22;102506.03;;;5.90;100.00
50242;BME280;36126;43.222;27.874;2022-11-14T04:50:47;102504.38;;;5.98;100.00
50242;BME280;36126;43.222;27.874;2022-11-14T04:53:13;102506.28;;;5.79;100.00
50242;BME280;36126;43.222;27.874;2022-11-14T04:55:38;102505.06;;;5.73;100.00
50242;BME280;36126;43.222;27.874;2022-11-14T04:58:03;102513.34;;;5.55;100.00
50242;BME280;36126;43.222;27.874;2022-11-14T05:00:29;102504.91;;;5.57;100.00
50242;BME280;36126;43.222;27.874;2022-11-14T05:02:54;102509.69;;;5.55;100.00
50242;BME280;36126;43.222;27.874;2022-11-14T05:05:19;102515.13;;;5.65;100.00
50242;BME280;36126;43.222;27.874;2022-11-14T05:07:45;102515.28;;;5.63;100.00
50242;BME280;36126;43.222;27.874;2022-11-14T05:10:10;102519.56;;;5.57;100.00
50242;BME280;36126;43.222;27.874;2022-11-14T05:12:35;102518.31;;;5.52;100.00
50242;BME280;36126;43.222;27.874;2022-11-14T05:15:01;102518.31;;;5.34;100.00
50242;BME280;36126;43.222;27.874;2022-11-14T05:17:26;102528.00;;;5.38;100.00
50242;BME280;36126;43.222;27.874;2022-11-14T05:19:51;102523.97;;;5.50;100.00
50242;BME280;36126;43.222;27.874;2022-11-14T05:22:17;102526.81;;;5.58;100.00
50242;BME280;36126;43.222;27.874;2022-11-14T05:24:42;102528.00;;;5.56;100.00
50242;BME280;36126;43.222;27.874;2022-11-14T05:27:07;102529.75;;;5.39;100.00
50242;BME280;36126;43.222;27.874;2022-11-14T05:29:33;102523.97;;;5.32;100.00
50242;BME280;36126;43.222;27.874;2022-11-14T05:31:58;102530.66;;;5.30;100.00
50242;BME280;36126;43.222;27.874;2022-11-14T05:34:24;102523.25;;;5.12;100.00
50242;BME280;36126;43.222;27.874;2022-11-14T05:36:50;102525.06;;;5.21;100.00
50242;BME280;36126;43.222;27.874;2022-11-14T05:39:15;102534.19;;;5.22;100.00
50242;BME280;36126;43.222;27.874;2022-11-14T05:41:40;102543.88;;;5.08;100.00
50242;BME280;36126;43.222;27.874;2022-11-14T05:44:06;102541.16;;;4.98;100.00
50242;BME280;36126;43.222;27.874;2022-11-14T05:46:31;102533.22;;;4.95;100.00
50242;BME280;36126;43.222;27.874;2022-11-14T05:48:57;102531.16;;;4.97;100.00
50242;BME280;36126;43.222;27.874;2022-11-14T05:51:22;102535.81;;;4.97;100.00
50242;BME280;36126;43.222;27.874;2022-11-14T05:53:48;102532.88;;;4.80;100.00
50242;BME280;36126;43.222;27.874;2022-11-14T05:56:13;102529.50;;;4.86;100.00
50242;BME280;36126;43.222;27.874;2022-11-14T05:58:39;102533.69;;;4.90;100.00
50242;BME280;36126;43.222;27.874;2022-11-14T06:01:11;102536.38;;;5.00;100.00
50242;BME280;36126;43.222;27.874;2022-11-14T06:03:38;102535.34;;;5.01;100.00
50242;BME280;36126;43.222;27.874;2022-11-14T06:06:04;102533.66;;;5.18;100.00
50242;BME280;36126;43.222;27.874;2022-11-14T06:08:30;102540.34;;;5.16;100.00
50242;BME280;36126;43.222;27.874;2022-11-14T06:10:56;102539.88;;;5.38;100.00
50242;BME280;36126;43.222;27.874;2022-11-14T06:13:25;102543.28;;;5.50;100.00
50242;BME280;36126;43.222;27.874;2022-11-14T06:15:50;102537.91;;;5.67;100.00
50242;BME280;36126;43.222;27.874;2022-11-14T06:18:16;102536.91;;;5.68;100.00
50242;BME280;36126;43.222;27.874;2022-11-14T06:20:41;102539.69;;;5.94;100.00
50242;BME280;36126;43.222;27.874;2022-11-14T06:23:07;102546.41;;;6.09;100.00
50242;BME280;36126;43.222;27.874;2022-11-14T06:25:32;102539.59;;;6.22;100.00
50242;BME280;36126;43.222;27.874;2022-11-14T06:27:57;102546.31;;;6.54;100.00
50242;BME280;36126;43.222;27.874;2022-11-14T06:30:23;102542.75;;;6.70;100.00
50242;BME280;36126;43.222;27.874;2022-11-14T06:32:48;102543.41;;;6.98;100.00
50242;BME280;36126;43.222;27.874;2022-11-14T06:35:14;102546.75;;;7.10;100.00
50242;BME280;36126;43.222;27.874;2022-11-14T06:37:39;102545.75;;;6.85;100.00
50242;BME280;36126;43.222;27.874;2022-11-14T06:40:05;102536.88;;;7.07;100.00
50242;BME280;36126;43.222;27.874;2022-11-14T06:42:30;102545.00;;;7.09;100.00
50242;BME280;36126;43.222;27.874;2022-11-14T06:44:55;102534.44;;;7.12;100.00
50242;BME280;36126;43.222;27.874;2022-11-14T06:47:21;102538.50;;;7.43;100.00
50242;BME280;36126;43.222;27.874;2022-11-14T06:49:46;102535.41;;;7.46;100.00
50242;BME280;36126;43.222;27.874;2022-11-14T06:52:11;102535.75;;;7.76;100.00
50242;BME280;36126;43.222;27.874;2022-11-14T06:54:37;102542.34;;;7.83;100.00
50242;BME280;36126;43.222;27.874;2022-11-14T06:57:02;102541.81;;;7.88;100.00
50242;BME280;36126;43.222;27.874;2022-11-14T06:59:27;102536.47;;;7.86;100.00
50242;BME280;36126;43.222;27.874;2022-11-14T07:01:53;102531.41;;;7.65;100.00
50242;BME280;36126;43.222;27.874;2022-11-14T07:04:18;102534.19;;;7.73;100.00
50242;BME280;36126;43.222;27.874;2022-11-14T07:06:43;102522.44;;;7.88;100.00
50242;BME280;36126;43.222;27.874;2022-11-14T07:09:09;102536.09;;;7.89;100.00
50242;BME280;36126;43.222;27.874;2022-11-14T07:11:35;102535.72;;;8.17;100.00
50242;BME280;36126;43.222;27.874;2022-11-14T07:14:02;102529.13;;;8.51;100.00
50242;BME280;36126;43.222;27.874;2022-11-14T07:16:32;102522.31;;;8.70;100.00
50242;BME280;36126;43.222;27.874;2022-11-14T07:18:59;102527.63;;;8.80;100.00
50242;BME280;36126;43.222;27.874;2022-11-14T07:21:25;102526.28;;;8.99;100.00
50242;BME280;36126;43.222;27.874;2022-11-14T07:23:51;102518.53;;;9.26;100.00
50242;BME280;36126;43.222;27.874;2022-11-14T07:26:16;102525.69;;;9.20;100.00
50242;BME280;36126;43.222;27.874;2022-11-14T07:28:42;102523.28;;;9.17;100.00
50242;BME280;36126;43.222;27.874;2022-11-14T07:31:09;102517.06;;;9.38;100.00
50242;BME280;36126;43.222;27.874;2022-11-14T07:33:36;102510.09;;;9.65;100.00
50242;BME280;36126;43.222;27.874;2022-11-14T07:36:02;102518.97;;;9.84;100.00
50242;BME280;36126;43.222;27.874;2022-11-14T07:38:28;102520.44;;;9.95;100.00
50242;BME280;36126;43.222;27.874;2022-11-14T07:40:58;102519.81;;;9.84;100.00
50242;BME280;36126;43.222;27.874;2022-11-14T07:43:23;102513.78;;;9.81;100.00
50242;BME280;36126;43.222;27.874;2022-11-14T07:45:49;102511.78;;;9.90;100.00
50242;BME280;36126;43.222;27.874;2022-11-14T07:48:15;102504.91;;;10.00;100.00
50242;BME280;36126;43.222;27.874;2022-11-14T07:50:40;102502.34;;;10.29;100.00
50242;BME280;36126;43.222;27.874;2022-11-14T07:53:06;102496.75;;;10.37;100.00
50242;BME280;36126;43.222;27.874;2022-11-14T07:55:33;102501.59;;;10.20;100.00
50242;BME280;36126;43.222;27.874;2022-11-14T07:57:59;102495.91;;;10.36;100.00
50242;BME280;36126;43.222;27.874;2022-11-14T08:00:24;102495.41;;;10.48;100.00
50242;BME280;36126;43.222;27.874;2022-11-14T08:02:50;102502.09;;;10.53;100.00
50242;BME280;36126;43.222;27.874;2022-11-14T08:05:15;102508.06;;;10.50;100.00
50242;BME280;36126;43.222;27.874;2022-11-14T08:07:41;102505.88;;;10.46;100.00
50242;BME280;36126;43.222;27.874;2022-11-14T08:10:07;102502.84;;;10.32;100.00
50242;BME280;36126;43.222;27.874;2022-11-14T08:12:32;102512.63;;;10.28;100.00
50242;BME280;36126;43.222;27.874;2022-11-14T08:14:58;102507.22;;;10.50;100.00
50242;BME280;36126;43.222;27.874;2022-11-14T08:17:23;102514.47;;;10.81;100.00
50242;BME280;36126;43.222;27.874;2022-11-14T08:19:48;102506.38;;;11.01;100.00
50242;BME280;36126;43.222;27.874;2022-11-14T08:22:14;102501.69;;;10.86;100.00
50242;BME280;36126;43.222;27.874;2022-11-14T08:24:39;102492.81;;;10.61;100.00
50242;BME280;36126;43.222;27.874;2022-11-14T08:27:05;102500.16;;;10.99;100.00
50242;BME280;36126;43.222;27.874;2022-11-14T08:29:30;102499.72;;;10.65;100.00
50242;BME280;36126;43.222;27.874;2022-11-14T08:31:58;102493.38;;;10.71;100.00
50242;BME280;36126;43.222;27.874;2022-11-14T08:34:24;102496.94;;;11.17;100.00
50242;BME280;36126;43.222;27.874;2022-11-14T08:36:49;102492.44;;;11.59;100.00
50242;BME280;36126;43.222;27.874;2022-11-14T08:39:15;102485.72;;;11.75;100.00
50242;BME280;36126;43.222;27.874;2022-11-14T08:41:40;102482.91;;;12.18;100.00
50242;BME280;36126;43.222;27.874;2022-11-14T08:44:05;102475.75;;;12.37;100.00
50242;BME280;36126;43.222;27.874;2022-11-14T08:46:30;102476.53;;;12.31;100.00
50242;BME280;36126;43.222;27.874;2022-11-14T08:48:56;102467.00;;;12.96;100.00
50242;BME280;36126;43.222;27.874;2022-11-14T08:51:21;102471.22;;;13.60;100.00
50242;BME280;36126;43.222;27.874;2022-11-14T08:53:47;102465.84;;;13.99;100.00
50242;BME280;36126;43.222;27.874;2022-11-14T08:56:12;102454.13;;;14.55;100.00
50242;BME280;36126;43.222;27.874;2022-11-14T08:58:38;102460.75;;;15.20;100.00
50242;BME280;36126;43.222;27.874;2022-11-14T09:01:05;102453.16;;;15.59;100.00
50242;BME280;36126;43.222;27.874;2022-11-14T09:03:30;102449.13;;;15.16;100.00
50242;BME280;36126;43.222;27.874;2022-11-14T09:05:56;102446.75;;;15.20;100.00
50242;BME280;36126;43.222;27.874;2022-11-14T09:08:21;102449.72;;;15.32;100.00
50242;BME280;36126;43.222;27.874;2022-11-14T09:10:47;102438.56;;;14.86;100.00
50242;BME280;36126;43.222;27.874;2022-11-14T09:13:13;102445.81;;;14.28;100.00
50242;BME280;36126;43.222;27.874;2022-11-14T09:15:39;102446.75;;;13.89;100.00
50242;BME280;36126;43.222;27.874;2022-11-14T09:18:04;102433.44;;;13.44;100.00
50242;BME280;36126;43.222;27.874;2022-11-14T09:20:30;102443.75;;;12.75;100.00
50242;BME280;36126;43.222;27.874;2022-11-14T09:22:58;102444.66;;;12.89;100.00
50242;BME280;36126;43.222;27.874;2022-11-14T09:25:24;102441.75;;;13.31;100.00
50242;BME280;36126;43.222;27.874;2022-11-14T09:27:50;102434.72;;;13.68;100.00
50242;BME280;36126;43.222;27.874;2022-11-14T09:30:16;102428.47;;;13.46;100.00
50242;BME280;36126;43.222;27.874;2022-11-14T09:32:41;102424.41;;;13.49;100.00
50242;BME280;36126;43.222;27.874;2022-11-14T09:35:07;102428.75;;;12.89;100.00
50242;BME280;36126;43.222;27.874;2022-11-14T09:37:32;102428.75;;;12.83;100.00
50242;BME280;36126;43.222;27.874;2022-11-14T09:39:57;102417.53;;;12.63;100.00
50242;BME280;36126;43.222;27.874;2022-11-14T09:45:14;102428.75;;;11.99;100.00
50242;BME280;36126;43.222;27.874;2022-11-14T09:47:41;102417.97;;;12.24;100.00
50242;BME280;36126;43.222;27.874;2022-11-14T09:52:39;102420.44;;;12.06;100.00
50242;BME280;36126;43.222;27.874;2022-11-14T09:57:42;102406.22;;;12.29;100.00
50242;BME280;36126;43.222;27.874;2022-11-14T10:00:18;102401.00;;;12.61;100.00
50242;BME280;36126;43.222;27.874;2022-11-14T10:02:53;102395.34;;;13.09;100.00
50242;BME280;36126;43.222;27.874;2022-11-14T10:10:51;102394.56;;;12.67;100.00
50242;BME280;36126;43.222;27.874;2022-11-14T10:18:34;102377.03;;;12.87;100.00
50242;BME280;36126;43.222;27.874;2022-11-14T10:21:06;102374.75;;;13.10;100.00
50242;BME280;36126;43.222;27.874;2022-11-14T10:28:40;102368.91;;;12.99;100.00
50242;BME280;36126;43.222;27.874;2022-11-14T10:31:18;102367.31;;;12.56;100.00
50242;BME280;36126;43.222;27.874;2022-11-14T10:39:09;102364.13;;;12.66;100.00
50242;BME280;36126;43.222;27.874;2022-11-14T10:41:36;102359.59;;;12.65;100.00
50242;BME280;36126;43.222;27.874;2022-11-14T10:44:02;102366.66;;;12.61;100.00
50242;BME280;36126;43.222;27.874;2022-11-14T10:46:33;102357.91;;;12.64;100.00
50242;BME280;36126;43.222;27.874;2022-11-14T10:49:01;102361.28;;;12.59;100.00
50242;BME280;36126;43.222;27.874;2022-11-14T10:51:34;102358.41;;;12.32;100.00
50242;BME280;36126;43.222;27.874;2022-11-14T10:54:24;102373.91;;;12.48;100.00
50242;BME280;36126;43.222;27.874;2022-11-14T10:56:52;102372.81;;;12.01;100.00
50242;BME280;36126;43.222;27.874;2022-11-14T10:59:18;102369.06;;;12.22;100.00
50242;BME280;36126;43.222;27.874;2022-11-14T11:04:11;102375.38;;;12.37;100.00
50242;BME280;36126;43.222;27.874;2022-11-14T11:06:37;102373.88;;;12.00;100.00
50242;BME280;36126;43.222;27.874;2022-11-14T11:09:24;102375.69;;;11.86;100.00
50242;BME280;36126;43.222;27.874;2022-11-14T11:12:07;102374.47;;;12.30;100.00
50242;BME280;36126;43.222;27.874;2022-11-14T11:14:33;102365.81;;;12.12;100.00
50242;BME280;36126;43.222;27.874;2022-11-14T11:19:37;102356.78;;;12.10;100.00
50242;BME280;36126;43.222;27.874;2022-11-14T11:22:02;102350.75;;;11.99;100.00
50242;BME280;36126;43.222;27.874;2022-11-14T11:24:32;102359.41;;;12.11;100.00
50242;BME280;36126;43.222;27.874;2022-11-14T11:27:42;102354.50;;;12.20;100.00
50242;BME280;36126;43.222;27.874;2022-11-14T11:29:44;102356.91;;;12.30;100.00
50242;BME280;36126;43.222;27.874;2022-11-14T11:32:09;102350.19;;;12.17;100.00
50242;BME280;36126;43.222;27.874;2022-11-14T11:34:35;102352.16;;;12.23;100.00
50242;BME280;36126;43.222;27.874;2022-11-14T11:39:36;102352.56;;;12.20;100.00
50242;BME280;36126;43.222;27.874;2022-11-14T11:42:05;102361.84;;;12.34;100.00
50242;BME280;36126;43.222;27.874;2022-11-14T11:44:35;102349.16;;;12.18;100.00
50242;BME280;36126;43.222;27.874;2022-11-14T11:47:07;102353.66;;;12.26;100.00
50242;BME280;36126;43.222;27.874;2022-11-14T11:49:50;102355.47;;;12.05;100.00
50242;BME280;36126;43.222;27.874;2022-11-14T11:54:47;102357.97;;;11.94;100.00
50242;BME280;36126;43.222;27.874;2022-11-14T11:57:14;102345.78;;;11.66;100.00
50242;BME280;36126;43.222;27.874;2022-11-14T11:59:41;102342.47;;;11.84;100.00
50242;BME280;36126;43.222;27.874;2022-11-14T12:02:17;102343.03;;;12.01;100.00
50242;BME280;36126;43.222;27.874;2022-11-14T12:04:45;102338.84;;;12.19;100.00
50242;BME280;36126;43.222;27.874;2022-11-14T12:10:00;102339.72;;;12.19;100.00
50242;BME280;36126;43.222;27.874;2022-11-14T12:22:59;102332.22;;;11.91;100.00
50242;BME280;36126;43.222;27.874;2022-11-14T12:30:38;102316.91;;;12.02;100.00
50242;BME280;36126;43.222;27.874;2022-11-14T12:33:09;102327.78;;;11.62;100.00
50242;BME280;36126;43.222;27.874;2022-11-14T12:35:36;102330.50;;;11.84;100.00
50242;BME280;36126;43.222;27.874;2022-11-14T12:38:03;102333.19;;;11.99;100.00
50242;BME280;36126;43.222;27.874;2022-11-14T12:42:58;102337.38;;;11.60;100.00
50242;BME280;36126;43.222;27.874;2022-11-14T12:46:07;102338.78;;;11.42;100.00
50242;BME280;36126;43.222;27.874;2022-11-14T12:50:44;102343.56;;;11.27;100.00
50242;BME280;36126;43.222;27.874;2022-11-14T13:06:24;102333.81;;;11.66;100.00
50242;BME280;36126;43.222;27.874;2022-11-14T13:09:14;102334.72;;;11.16;100.00
50242;BME280;36126;43.222;27.874;2022-11-14T13:11:40;102336.94;;;11.28;100.00
50242;BME280;36126;43.222;27.874;2022-11-14T13:14:25;102336.47;;;11.24;100.00
50242;BME280;36126;43.222;27.874;2022-11-14T13:20:21;102330.28;;;11.50;100.00
50242;BME280;36126;43.222;27.874;2022-11-14T13:23:02;102332.59;;;11.47;100.00
50242;BME280;36126;43.222;27.874;2022-11-14T13:25:28;102321.41;;;11.68;100.00
50242;BME280;36126;43.222;27.874;2022-11-14T13:27:54;102317.47;;;11.28;100.00
50242;BME280;36126;43.222;27.874;2022-11-14T13:33:07;102315.16;;;11.10;100.00
50242;BME280;36126;43.222;27.874;2022-11-14T13:35:47;102315.03;;;10.96;100.00
50242;BME280;36126;43.222;27.874;2022-11-14T13:48:35;102313.84;;;10.84;100.00
50242;BME280;36126;43.222;27.874;2022-11-14T13:51:04;102314.59;;;10.71;100.00
50242;BME280;36126;43.222;27.874;2022-11-14T13:53:31;102322.94;;;10.93;100.00
50242;BME280;36126;43.222;27.874;2022-11-14T14:01:13;102320.16;;;10.93;100.00
50242;BME280;36126;43.222;27.874;2022-11-14T14:06:56;102319.28;;;11.14;100.00
50242;BME280;36126;43.222;27.874;2022-11-14T14:17:11;102315.84;;;10.68;100.00
50242;BME280;36126;43.222;27.874;2022-11-14T14:19:52;102311.53;;;10.66;100.00
50242;BME280;36126;43.222;27.874;2022-11-14T14:24:54;102296.91;;;10.57;100.00
50242;BME280;36126;43.222;27.874;2022-11-14T14:27:30;102300.81;;;10.63;100.00
50242;BME280;36126;43.222;27.874;2022-11-14T14:30:09;102297.75;;;10.58;100.00
50242;BME280;36126;43.222;27.874;2022-11-14T14:32:35;102300.53;;;10.36;100.00